Overview Statistics Trail Chart Weather Telemetry Raw packets
 

This is the latest recevied weather packets stored in our database for station/object KO4YAW. If no packets are shown the sender has not sent any weather packets the latest 10 day(s).

<< 35 36 37 38 39 >>
Time Temp. Humidity Pressure Rain* Wind** Luminosity Snow
1787843983 22.78° C 47% 1024.9 hPa 0 mm - 51 W/m² -
1787843083 22.78° C 48% 1024.8 hPa 0 mm - 50 W/m² -
1787842183 22.22° C 52% 1024.8 hPa 0 mm - 48 W/m² -
1787841283 21.11° C 54% 1024.7 hPa 0 mm - 62 W/m² -
1787840383 20.56° C 58% 1024.8 hPa 0 mm - 49 W/m² -
1787839483 19.44° C 60% 1024.8 hPa 0 mm - 54 W/m² -
1787838583 18.89° C 63% 1024.8 hPa 0 mm - 45 W/m² -
1787837683 18.33° C 65% 1024.7 hPa 0 mm - 74 W/m² -
1787836783 17.78° C 66% 1024.5 hPa 0 mm - 107 W/m² -
1787835883 17.22° C 68% 1024.4 hPa 0 mm - 25 W/m² -
1787834983 16.67° C 69% 1024.3 hPa 0 mm - 15 W/m² -
1787834082 16.67° C 69% 1024.3 hPa 0 mm - 6 W/m² -
1787833182 17.22° C 68% 1024.2 hPa 0 mm - 1 W/m² -
1787832282 17.78° C 67% 1024.1 hPa 0 mm - 0 W/m² -
1787831382 17.78° C 67% 1023.8 hPa 0 mm - 0 W/m² -
1787830482 18.33° C 66% 1024 hPa 0 mm - 0 W/m² -
1787829582 18.33° C 66% 1024.1 hPa 0 mm - 0 W/m² -
1787828682 18.33° C 65% 1024.2 hPa 0 mm - 0 W/m² -
1787827782 18.33° C 66% 1024.2 hPa 0 mm - 0 W/m² -
1787826882 18.33° C 66% 1024.1 hPa 0 mm - 0 W/m² -
1787825982 18.33° C 65% 1024.1 hPa 0 mm - 0 W/m² -
1787825082 18.33° C 64% 1023.8 hPa 0 mm - 0 W/m² -
1787824182 18.33° C 63% 1024 hPa 0 mm - 0 W/m² -
1787823282 18.33° C 62% 1024.1 hPa 0 mm - 0 W/m² -
1787822382 18.89° C 62% 1024.1 hPa 0 mm - 0 W/m² -

* Rain since midnight (hover to see other rain measurements)
** Current wind speed in m/s (hover to see current wind gust speed)